createdAt,value
2019-05-29T00:01:38.488Z,17.95
2019-05-29T00:04:14.622Z,17.95
2019-05-29T00:06:50.288Z,17.95
2019-05-29T00:09:34.887Z,17.96
2019-05-29T00:12:11.360Z,17.91
2019-05-29T00:14:41.375Z,17.92
2019-05-29T00:17:14.695Z,17.92
2019-05-29T00:19:50.375Z,17.90
2019-05-29T00:22:23.748Z,17.94
2019-05-29T00:25:06.309Z,17.96
2019-05-29T00:27:39.799Z,17.96
2019-05-29T00:30:15.022Z,17.98
2019-05-29T00:32:48.687Z,18.02
2019-05-29T00:35:29.397Z,17.97
2019-05-29T00:38:02.852Z,17.96
2019-05-29T00:40:39.190Z,17.88
2019-05-29T00:43:13.237Z,17.93
2019-05-29T00:45:46.062Z,17.93
2019-05-29T00:48:21.687Z,17.95
2019-05-29T00:50:57.736Z,17.88
2019-05-29T00:53:44.806Z,17.91
2019-05-29T00:56:16.690Z,17.89
2019-05-29T01:02:15.746Z,17.78
2019-05-29T01:04:48.243Z,17.74
2019-05-29T01:07:21.604Z,17.69
2019-05-29T01:09:57.267Z,17.65
2019-05-29T01:12:30.269Z,17.67
2019-05-29T01:15:02.037Z,17.66
2019-05-29T01:17:36.680Z,17.69
2019-05-29T01:20:09.539Z,17.70
2019-05-29T01:22:46.852Z,17.66
2019-05-29T01:25:18.831Z,17.65
2019-05-29T01:28:00.447Z,17.62
2019-05-29T01:30:38.436Z,17.62
2019-05-29T01:33:11.797Z,17.56
2019-05-29T01:35:43.510Z,17.47
2019-05-29T01:38:17.273Z,17.36
2019-05-29T01:40:50.827Z,17.30
2019-05-29T01:43:24.704Z,17.28
2019-05-29T01:45:57.484Z,17.28
2019-05-29T01:48:32.231Z,17.29
2019-05-29T01:51:08.957Z,17.29
2019-05-29T01:53:44.795Z,17.23
2019-05-29T01:56:19.772Z,17.26
2019-05-29T01:58:52.742Z,17.29
2019-05-29T02:01:24.398Z,17.29
2019-05-29T02:03:59.668Z,17.25
2019-05-29T02:06:34.018Z,17.23
2019-05-29T02:09:07.353Z,17.27
2019-05-29T02:12:02.834Z,17.22
2019-05-29T02:14:36.656Z,17.22
2019-05-29T02:17:15.943Z,17.25
2019-05-29T02:19:50.606Z,17.25
2019-05-29T02:22:26.917Z,17.19
2019-05-29T02:25:02.251Z,17.18
2019-05-29T02:27:35.074Z,17.13
2019-05-29T02:30:10.250Z,17.12
2019-05-29T02:32:45.916Z,17.11
2019-05-29T02:35:22.364Z,17.06
2019-05-29T02:37:57.522Z,17.07
2019-05-29T02:40:34.017Z,17.01
2019-05-29T02:43:27.585Z,17.02
2019-05-29T02:46:04.596Z,17.01
2019-05-29T02:48:39.477Z,16.98
2019-05-29T02:51:12.768Z,16.99
2019-05-29T02:53:48.835Z,16.95
2019-05-29T02:56:29.046Z,16.99
2019-05-29T02:59:04.166Z,16.91
2019-05-29T03:01:39.779Z,16.93
2019-05-29T03:04:14.459Z,16.89
2019-05-29T03:06:50.568Z,16.88
2019-05-29T03:09:28.424Z,16.92
2019-05-29T03:12:04.963Z,16.92
2019-05-29T03:14:39.778Z,16.97
2019-05-29T03:17:17.167Z,17.06
2019-05-29T03:19:49.687Z,17.09
2019-05-29T03:22:26.126Z,17.09
2019-05-29T03:25:01.196Z,17.11
2019-05-29T03:27:38.385Z,17.13
2019-05-29T03:30:12.071Z,17.22
2019-05-29T03:32:51.790Z,17.28
2019-05-29T03:35:31.579Z,17.37
2019-05-29T03:38:05.514Z,17.42
2019-05-29T03:40:38.737Z,17.48
2019-05-29T03:43:14.441Z,17.54
2019-05-29T03:45:49.786Z,17.61
2019-05-29T03:48:25.960Z,17.61
2019-05-29T03:51:00.531Z,17.62
2019-05-29T03:53:38.624Z,17.66
2019-05-29T03:56:19.102Z,17.72
2019-05-29T03:58:51.800Z,17.78
2019-05-29T04:01:26.823Z,17.86
2019-05-29T04:04:02.832Z,17.91
2019-05-29T04:06:56.924Z,18.02
2019-05-29T04:09:27.148Z,18.07
2019-05-29T04:12:11.542Z,18.16
2019-05-29T04:14:58.133Z,18.26
2019-05-29T04:17:31.914Z,18.29
2019-05-29T04:20:05.448Z,18.42
2019-05-29T04:22:47.658Z,18.46
2019-05-29T04:25:22.909Z,18.55
2019-05-29T04:27:59.958Z,18.67
2019-05-29T04:30:57.943Z,18.76
2019-05-29T04:33:32.608Z,18.83
2019-05-29T04:36:05.402Z,18.92
2019-05-29T04:38:40.415Z,19.01
2019-05-29T04:41:12.419Z,19.15
2019-05-29T04:43:48.591Z,19.20
2019-05-29T04:46:25.163Z,19.28
2019-05-29T04:48:58.309Z,19.38
2019-05-29T04:51:33.158Z,19.48
2019-05-29T04:54:10.290Z,19.58
2019-05-29T04:56:45.164Z,19.70
2019-05-29T04:59:16.882Z,19.75
2019-05-29T05:01:57.664Z,19.83
2019-05-29T05:04:29.498Z,19.95
2019-05-29T05:07:02.794Z,20.05
2019-05-29T05:09:37.473Z,20.13
2019-05-29T05:12:21.382Z,20.22
2019-05-29T05:14:53.642Z,20.36
2019-05-29T05:17:27.177Z,20.50
2019-05-29T05:20:02.615Z,20.58
2019-05-29T05:22:36.368Z,20.63
2019-05-29T05:25:12.384Z,20.71
2019-05-29T05:27:48.440Z,20.81
2019-05-29T05:30:26.642Z,20.83
2019-05-29T05:33:02.449Z,20.97
2019-05-29T05:35:36.872Z,21.05
2019-05-29T05:38:13.359Z,21.16
2019-05-29T05:40:49.926Z,21.28
2019-05-29T05:43:24.671Z,21.40
2019-05-29T05:45:59.658Z,21.48
2019-05-29T05:48:33.690Z,21.59
2019-05-29T05:51:09.813Z,21.73
2019-05-29T05:53:41.947Z,21.85
2019-05-29T05:56:15.097Z,21.95
2019-05-29T05:58:54.445Z,22.05
2019-05-29T06:01:31.783Z,22.24
2019-05-29T06:04:06.803Z,22.37
2019-05-29T06:06:38.674Z,22.54
2019-05-29T06:09:13.942Z,22.56
2019-05-29T06:11:54.512Z,22.75
2019-05-29T06:14:28.050Z,22.81
2019-05-29T06:17:04.477Z,23.01
2019-05-29T06:19:38.998Z,23.18
2019-05-29T06:22:14.426Z,23.42
2019-05-29T06:24:48.289Z,23.46
2019-05-29T06:27:23.314Z,23.58
2019-05-29T06:29:57.482Z,23.67
2019-05-29T06:32:29.260Z,23.86
2019-05-29T06:35:02.600Z,23.92
2019-05-29T06:37:39.611Z,24.12
2019-05-29T06:40:13.903Z,24.23
2019-05-29T06:42:52.516Z,24.32
2019-05-29T06:45:33.751Z,24.59
2019-05-29T06:48:09.822Z,24.84
2019-05-29T06:50:41.587Z,24.94
2019-05-29T06:53:17.286Z,25.24
2019-05-29T06:55:57.668Z,25.48
2019-05-29T06:58:32.109Z,25.55
2019-05-29T07:01:03.685Z,25.61
2019-05-29T07:03:37.595Z,25.76
2019-05-29T07:06:13.146Z,26.03
2019-05-29T07:08:48.231Z,26.10
2019-05-29T07:11:20.723Z,26.28
2019-05-29T07:13:53.019Z,26.44
2019-05-29T07:16:43.193Z,26.41
2019-05-29T07:19:28.182Z,26.32
2019-05-29T07:21:38.777Z,26.41
2019-05-29T07:24:12.193Z,26.57
2019-05-29T07:26:47.221Z,26.65
2019-05-29T07:29:41.530Z,26.81
2019-05-29T07:32:18.049Z,26.82
2019-05-29T07:35:03.189Z,26.89
2019-05-29T07:37:26.800Z,27.08
2019-05-29T07:39:59.033Z,27.27
2019-05-29T07:42:34.153Z,27.46
2019-05-29T07:45:09.261Z,27.65
2019-05-29T07:47:46.711Z,27.51
2019-05-29T07:50:22.112Z,27.57
2019-05-29T07:52:56.699Z,27.76
2019-05-29T07:55:28.155Z,27.84
2019-05-29T07:58:06.014Z,27.91
2019-05-29T08:01:03.746Z,27.90
2019-05-29T08:03:15.054Z,28.06
2019-05-29T08:05:52.656Z,28.25
2019-05-29T08:08:28.625Z,28.27
2019-05-29T08:11:01.813Z,28.50
2019-05-29T08:13:36.100Z,28.64
2019-05-29T08:16:08.383Z,28.54
2019-05-29T08:18:41.663Z,28.53
2019-05-29T08:21:15.051Z,28.54
2019-05-29T08:23:48.899Z,28.45
2019-05-29T08:26:30.968Z,28.54
2019-05-29T08:29:03.151Z,28.72
2019-05-29T08:31:37.787Z,28.74
2019-05-29T08:34:12.845Z,28.89
2019-05-29T08:37:01.176Z,28.93
2019-05-29T08:39:35.046Z,28.99
2019-05-29T08:42:21.086Z,29.38
2019-05-29T08:44:38.521Z,29.40
2019-05-29T08:47:14.703Z,29.47
2019-05-29T08:49:51.631Z,29.62
2019-05-29T08:52:23.966Z,29.69
2019-05-29T08:54:56.155Z,29.91
2019-05-29T08:57:28.929Z,30.15
2019-05-29T09:00:01.054Z,30.35
2019-05-29T09:02:35.833Z,30.42
2019-05-29T09:05:21.887Z,30.45
2019-05-29T09:07:54.396Z,30.83
2019-05-29T09:10:27.507Z,30.94
2019-05-29T09:13:05.052Z,31.04
2019-05-29T09:15:39.353Z,31.23
2019-05-29T09:18:13.499Z,31.46
2019-05-29T09:21:01.648Z,31.53
2019-05-29T09:23:23.173Z,31.71
2019-05-29T09:26:14.057Z,31.85
2019-05-29T09:28:34.572Z,32.38
2019-05-29T09:31:09.222Z,32.24
2019-05-29T09:33:41.392Z,32.02
2019-05-29T09:36:13.951Z,32.04
2019-05-29T09:38:49.946Z,32.28
2019-05-29T09:41:25.622Z,32.60
2019-05-29T09:44:00.441Z,32.82
2019-05-29T09:46:33.526Z,33.20
2019-05-29T09:49:05.680Z,33.64
2019-05-29T09:51:47.027Z,33.50
2019-05-29T09:54:24.522Z,33.72
2019-05-29T09:56:59.492Z,33.87
2019-05-29T09:59:36.410Z,33.92
2019-05-29T10:02:09.095Z,34.07
2019-05-29T10:04:41.256Z,33.91
2019-05-29T10:07:14.881Z,34.30
2019-05-29T10:09:49.567Z,34.30
2019-05-29T10:12:24.685Z,34.14
2019-05-29T10:14:57.611Z,34.22
2019-05-29T10:17:35.207Z,34.62
2019-05-29T10:20:11.110Z,34.92
2019-05-29T10:22:44.632Z,34.91
2019-05-29T10:25:22.788Z,35.03
2019-05-29T10:27:54.882Z,35.10
2019-05-29T10:30:29.132Z,35.13
2019-05-29T10:33:03.947Z,34.91
2019-05-29T10:35:37.057Z,35.11
2019-05-29T10:38:11.733Z,35.53
2019-05-29T10:40:56.642Z,35.54
2019-05-29T10:43:33.728Z,35.40
2019-05-29T10:46:06.512Z,35.63
2019-05-29T10:48:40.163Z,35.46
2019-05-29T10:51:16.404Z,35.72
2019-05-29T10:53:57.844Z,35.87
2019-05-29T10:56:28.002Z,36.21
2019-05-29T10:59:03.838Z,36.12
2019-05-29T11:01:37.294Z,36.06
2019-05-29T11:04:15.151Z,35.66
2019-05-29T11:06:54.854Z,35.41
2019-05-29T11:09:42.953Z,34.94
2019-05-29T11:12:01.490Z,35.03
2019-05-29T11:14:36.874Z,35.38
2019-05-29T11:17:08.653Z,35.71
2019-05-29T11:19:42.008Z,35.39
2019-05-29T11:22:25.830Z,35.64
2019-05-29T11:24:54.172Z,35.39
2019-05-29T11:27:27.293Z,35.49
2019-05-29T11:29:59.307Z,35.29
2019-05-29T11:32:30.972Z,35.27
2019-05-29T11:35:06.568Z,35.33
2019-05-29T11:37:39.978Z,35.08
2019-05-29T11:40:13.557Z,35.01
2019-05-29T11:42:48.522Z,35.11
2019-05-29T11:45:20.649Z,35.31
2019-05-29T11:47:53.892Z,34.83
2019-05-29T11:50:30.218Z,34.17
2019-05-29T11:53:02.674Z,33.57
2019-05-29T11:55:35.394Z,33.24
2019-05-29T11:58:07.164Z,33.37
2019-05-29T12:00:42.095Z,33.31
2019-05-29T12:03:13.900Z,32.86
2019-05-29T12:05:49.320Z,32.70
2019-05-29T12:08:27.398Z,32.44
2019-05-29T12:11:07.060Z,32.17
2019-05-29T12:13:39.859Z,31.76
2019-05-29T12:16:11.277Z,31.68
2019-05-29T12:18:42.896Z,31.26
2019-05-29T12:21:16.094Z,31.00
2019-05-29T12:23:47.658Z,31.46
2019-05-29T12:26:23.509Z,31.64
2019-05-29T12:29:07.145Z,31.77
2019-05-29T12:31:34.374Z,31.85
2019-05-29T12:34:17.718Z,31.67
2019-05-29T12:36:39.950Z,31.95
2019-05-29T12:39:12.084Z,31.97
2019-05-29T12:41:48.050Z,31.91
2019-05-29T12:44:20.944Z,31.57
2019-05-29T12:46:55.482Z,31.43
2019-05-29T12:49:28.358Z,31.73
2019-05-29T12:52:07.218Z,31.56
2019-05-29T12:54:39.993Z,31.01
2019-05-29T12:57:15.871Z,30.88
2019-05-29T12:59:48.877Z,30.65
2019-05-29T13:02:22.407Z,30.74
2019-05-29T13:05:11.267Z,30.51
2019-05-29T13:07:36.373Z,30.61
2019-05-29T13:10:27.228Z,30.81
2019-05-29T13:12:46.802Z,30.53
2019-05-29T13:15:26.583Z,30.60
2019-05-29T13:18:07.962Z,30.64
2019-05-29T13:20:37.518Z,30.65
2019-05-29T13:23:13.410Z,30.72
2019-05-29T13:25:46.750Z,30.65
2019-05-29T13:28:18.546Z,30.51
2019-05-29T13:30:50.467Z,30.38
2019-05-29T13:33:26.236Z,30.25
2019-05-29T13:36:06.668Z,30.23
2019-05-29T13:38:39.904Z,30.22
2019-05-29T13:41:20.160Z,30.17
2019-05-29T13:43:51.832Z,29.95
2019-05-29T13:46:24.716Z,30.07
2019-05-29T13:49:01.151Z,30.20
2019-05-29T13:51:34.863Z,30.09
2019-05-29T13:54:14.116Z,30.05
2019-05-29T13:56:40.171Z,29.83
2019-05-29T13:59:16.338Z,29.89
2019-05-29T14:01:54.542Z,30.04
2019-05-29T14:04:30.377Z,29.86
2019-05-29T14:07:05.011Z,29.83
2019-05-29T14:09:39.658Z,29.80
2019-05-29T14:12:15.614Z,29.69
2019-05-29T14:14:49.713Z,29.65
2019-05-29T14:17:24.264Z,29.48
2019-05-29T14:20:02.735Z,29.56
2019-05-29T14:22:38.413Z,29.34
2019-05-29T14:25:12.839Z,29.36
2019-05-29T14:27:48.030Z,29.06
2019-05-29T14:30:22.200Z,28.90
2019-05-29T14:32:56.756Z,28.84
2019-05-29T14:35:36.534Z,28.52
2019-05-29T14:38:12.842Z,28.59
2019-05-29T14:40:41.862Z,28.55
2019-05-29T14:43:15.761Z,28.52
2019-05-29T14:45:51.516Z,28.27
2019-05-29T14:48:27.788Z,28.23
2019-05-29T14:51:04.945Z,28.16
2019-05-29T14:53:45.877Z,28.08
2019-05-29T14:56:21.597Z,27.91
2019-05-29T14:58:55.411Z,27.81
2019-05-29T15:01:32.001Z,27.55
2019-05-29T15:04:07.599Z,27.61
2019-05-29T15:06:40.467Z,27.44
2019-05-29T15:09:19.555Z,27.35
2019-05-29T15:11:54.664Z,27.31
2019-05-29T15:14:26.237Z,27.34
2019-05-29T15:17:01.380Z,27.36
2019-05-29T15:19:36.477Z,27.18
2019-05-29T15:22:16.007Z,27.04
2019-05-29T15:25:04.293Z,27.08
2019-05-29T15:27:27.985Z,27.20
2019-05-29T15:30:01.205Z,26.91
2019-05-29T15:32:35.268Z,26.65
2019-05-29T15:35:12.741Z,26.60
2019-05-29T15:37:41.462Z,26.67
2019-05-29T15:40:17.639Z,26.49
2019-05-29T15:42:51.649Z,26.37
2019-05-29T15:45:25.676Z,26.42
2019-05-29T15:48:00.346Z,26.32
2019-05-29T15:50:32.027Z,26.13
2019-05-29T15:53:07.206Z,25.96
2019-05-29T15:55:43.088Z,26.08
2019-05-29T15:58:18.413Z,26.12
2019-05-29T16:00:50.494Z,26.14
2019-05-29T16:03:28.177Z,26.07
2019-05-29T16:06:08.135Z,26.04
2019-05-29T16:08:41.210Z,25.95
2019-05-29T16:11:15.057Z,26.00
2019-05-29T16:13:51.881Z,25.87
2019-05-29T16:16:25.428Z,25.83
2019-05-29T16:19:00.526Z,25.70
2019-05-29T16:21:33.738Z,25.59
2019-05-29T16:24:05.397Z,25.62
2019-05-29T16:26:41.642Z,25.53
2019-05-29T16:29:20.389Z,25.33
2019-05-29T16:31:56.950Z,25.34
2019-05-29T16:34:31.535Z,25.26
2019-05-29T16:37:03.131Z,25.21
2019-05-29T16:39:38.047Z,25.16
2019-05-29T16:42:09.684Z,25.20
2019-05-29T16:44:41.678Z,25.03
2019-05-29T16:47:22.734Z,25.07
2019-05-29T16:49:55.041Z,24.91
2019-05-29T16:52:26.916Z,24.94
2019-05-29T16:55:05.039Z,24.97
2019-05-29T16:57:38.318Z,24.88
2019-05-29T17:00:13.861Z,24.81
2019-05-29T17:02:49.747Z,24.71
2019-05-29T17:05:25.615Z,24.62
2019-05-29T17:08:04.579Z,24.61
2019-05-29T17:10:43.639Z,24.63
2019-05-29T17:13:18.568Z,24.59
2019-05-29T17:15:53.635Z,24.53
2019-05-29T17:18:28.338Z,24.38
2019-05-29T17:21:03.528Z,24.28
2019-05-29T17:23:37.530Z,24.20
2019-05-29T17:26:11.159Z,24.14
2019-05-29T17:28:42.947Z,23.89
2019-05-29T17:31:16.827Z,23.76
2019-05-29T17:33:51.526Z,23.75
2019-05-29T17:36:28.644Z,23.74
2019-05-29T17:39:01.163Z,23.66
2019-05-29T17:41:38.158Z,23.54
2019-05-29T17:44:09.728Z,23.48
2019-05-29T17:46:49.406Z,23.46
2019-05-29T17:49:33.014Z,23.34
2019-05-29T17:52:00.594Z,23.35
2019-05-29T17:54:33.746Z,23.06
2019-05-29T17:57:05.548Z,23.00
2019-05-29T17:59:37.195Z,22.98
2019-05-29T18:02:12.036Z,22.85
2019-05-29T18:04:46.335Z,22.74
2019-05-29T18:07:20.629Z,22.52
2019-05-29T18:09:52.427Z,22.42
2019-05-29T18:12:29.141Z,22.38
2019-05-29T18:18:43.840Z,22.46
2019-05-29T18:21:17.425Z,22.41
2019-05-29T18:27:28.586Z,22.24
2019-05-29T18:30:24.359Z,22.08
2019-05-29T18:33:16.998Z,22.05
2019-05-29T18:35:51.141Z,22.10
2019-05-29T18:38:30.190Z,22.15
2019-05-29T18:41:01.937Z,22.12
2019-05-29T18:43:35.021Z,22.18
2019-05-29T18:46:07.632Z,22.21
2019-05-29T18:48:42.139Z,22.10
2019-05-29T18:51:24.452Z,22.15
2019-05-29T18:53:57.361Z,22.14
2019-05-29T18:56:32.363Z,22.13
2019-05-29T18:59:13.295Z,22.18
2019-05-29T19:02:31.648Z,22.27
2019-05-29T19:05:03.846Z,22.22
2019-05-29T19:07:39.028Z,22.12
2019-05-29T19:10:12.766Z,22.02
2019-05-29T19:12:44.419Z,21.97
2019-05-29T19:19:17.666Z,21.97
2019-05-29T19:21:49.898Z,22.01
2019-05-29T19:24:22.559Z,22.00
2019-05-29T19:26:56.815Z,22.01
2019-05-29T19:29:31.179Z,22.13
2019-05-29T19:32:05.940Z,22.05
2019-05-29T19:34:39.270Z,22.07
2019-05-29T19:37:18.556Z,22.07
2019-05-29T19:39:52.968Z,22.04
2019-05-29T19:42:24.582Z,21.89
2019-05-29T19:44:58.888Z,21.80
2019-05-29T19:47:32.826Z,21.75
2019-05-29T19:50:15.187Z,21.66
2019-05-29T19:52:48.738Z,21.72
2019-05-29T19:55:25.738Z,21.62
2019-05-29T19:58:03.727Z,21.54
2019-05-29T20:00:38.894Z,21.43
2019-05-29T20:03:14.396Z,21.47
2019-05-29T20:05:48.648Z,21.49
2019-05-29T20:08:26.991Z,21.53
2019-05-29T20:11:06.880Z,21.51
2019-05-29T20:13:40.088Z,21.54
2019-05-29T20:16:14.165Z,21.54
2019-05-29T20:18:54.300Z,21.60
2019-05-29T20:21:28.552Z,21.63
2019-05-29T20:24:00.425Z,21.70
2019-05-29T20:26:37.145Z,21.70
2019-05-29T20:29:09.046Z,21.69
2019-05-29T20:31:40.695Z,21.78
2019-05-29T20:34:14.512Z,21.78
2019-05-29T20:36:47.865Z,21.77
2019-05-29T20:39:24.703Z,21.80
2019-05-29T20:42:00.661Z,21.82
2019-05-29T20:44:36.668Z,21.82
2019-05-29T20:47:08.485Z,21.83
2019-05-29T20:49:42.322Z,21.82
2019-05-29T20:52:18.375Z,21.85
2019-05-29T20:54:50.004Z,21.82
2019-05-29T20:57:28.213Z,21.80
2019-05-29T21:00:00.819Z,21.80
2019-05-29T21:02:33.981Z,21.80
2019-05-29T21:05:10.160Z,21.80
2019-05-29T21:07:46.373Z,21.71
2019-05-29T21:10:29.611Z,21.67
2019-05-29T21:13:05.820Z,21.68
2019-05-29T21:15:37.930Z,21.64
2019-05-29T21:18:16.956Z,21.62
2019-05-29T21:20:49.179Z,21.59
2019-05-29T21:23:27.585Z,21.57
2019-05-29T21:26:00.647Z,21.63
2019-05-29T21:28:40.866Z,21.61
2019-05-29T21:31:11.568Z,21.61
2019-05-29T21:33:50.361Z,21.59
2019-05-29T21:36:24.429Z,21.58
2019-05-29T21:39:02.908Z,21.52
2019-05-29T21:41:49.384Z,21.53
2019-05-29T21:44:23.352Z,21.53
2019-05-29T21:47:00.976Z,21.51
2019-05-29T21:49:35.216Z,21.50
2019-05-29T21:52:11.552Z,21.49
2019-05-29T21:54:48.375Z,21.46
2019-05-29T21:57:21.125Z,21.43
2019-05-29T21:59:55.813Z,21.48
2019-05-29T22:02:35.439Z,21.39
2019-05-29T22:05:09.847Z,21.35
2019-05-29T22:07:42.807Z,21.33
2019-05-29T22:10:16.584Z,21.32
2019-05-29T22:12:48.797Z,21.30
2019-05-29T22:15:20.697Z,21.27
2019-05-29T22:17:55.064Z,21.19
2019-05-29T22:20:27.636Z,21.16
2019-05-29T22:23:02.848Z,21.14
2019-05-29T22:25:37.010Z,21.10
2019-05-29T22:28:12.135Z,21.08
2019-05-29T22:30:49.221Z,21.03
2019-05-29T22:33:25.044Z,20.98
2019-05-29T22:36:14.937Z,20.95
2019-05-29T22:38:49.041Z,20.84
2019-05-29T22:41:23.038Z,20.80
2019-05-29T22:44:09.908Z,20.75
2019-05-29T22:46:44.385Z,20.72
2019-05-29T22:49:19.063Z,20.67
2019-05-29T22:51:53.693Z,20.66
2019-05-29T22:54:30.907Z,20.62
2019-05-29T22:57:09.857Z,20.61
2019-05-29T23:00:06.340Z,20.65
2019-05-29T23:02:43.249Z,20.59
2019-05-29T23:05:16.373Z,20.56
2019-05-29T23:07:49.100Z,20.58
2019-05-29T23:10:23.446Z,20.55
2019-05-29T23:12:56.444Z,20.53
2019-05-29T23:15:29.941Z,20.49
2019-05-29T23:18:05.403Z,20.36
2019-05-29T23:20:46.610Z,20.33
2019-05-29T23:23:25.774Z,20.31
2019-05-29T23:26:06.322Z,20.27
2019-05-29T23:28:56.849Z,20.23
2019-05-29T23:31:41.835Z,20.23
2019-05-29T23:34:41.359Z,20.28
2019-05-29T23:37:13.989Z,20.23
2019-05-29T23:39:48.294Z,20.17
2019-05-29T23:42:22.754Z,20.14
2019-05-29T23:44:56.004Z,20.11
2019-05-29T23:47:32.458Z,20.10
2019-05-29T23:50:27.891Z,20.03
2019-05-29T23:53:01.972Z,20.00
2019-05-29T23:55:39.504Z,20.01
2019-05-29T23:58:11.198Z,20.00
